Kipton, OH (44049)

12:08 AM EST on December 21, 2014 (GMT -0500)
Camden Township, Ohio | Change Station
CLOSE
Current Station
Personal Weather Station
Location: Wellington, OH
Elevation: 871 ft
Nearby Weather Stations

Elev 871 ft 41.24 °N, 82.29 °W | Updated 5 seconds ago

Overcast
Overcast
24.1 °F
Feels Like 24 °F
N
0.0
Wind Variable Wind from WSW
Gusts 0.0 mph

Today
High -- | Low -- °F
--% Chance of Precip.
Yesterday
High -- | Low -- °F
Precip. -- in
7:51 AM 5:03 PM
Waning Crescent, 1% visible
Pressure 30.31 in
Visibility 6.0 miles
Clouds Mostly Cloudy 3300 ft
Windchill 24 °F
Dew Point 20 °F
Humidity 84%
Rainfall 0.00 in
Snow Depth Not available.
UV 0 out of 12
Pollen .10 out of 12
Air Quality Not available.
Flu Activity Not available.
METAR KLPR 210453Z AUTO 20003KT 6SM BR BKN033 M03/M04 A3028 RMK AO2 SNE0358 SLP263 P0000 T10331044 410061033 TSNO

More Conditions Fewer Conditions

Pressure 30.31 in
Visibility 6.0 miles
Clouds Mostly Cloudy 3300 ft
Windchill 24 °F
Dew Point 20 °F
Humidity 84%
Rainfall 0.00 in
Snow Depth Not available.
UV 0 out of 12
Pollen .10 out of 12
Air Quality Not available.
Flu Activity Not available.
METAR KLPR 210453Z AUTO 20003KT 6SM BR BKN033 M03/M04 A3028 RMK AO2 SNE0358 SLP263 P0000 T10331044 410061033 TSNO

More Conditions Fewer Conditions

10-Day Weather Forecast

Almanac

Astronomy

Dec. 21, 2014 Rise Set
Actual Time
Civil Twilight
Nautical Twilight
Astronomical Twilight
Moon
Length of Visible Light
Length of Day
Tomorrow will be .
, % of the Moon is Illuminated

Today's Extremes

State Highs State Lows

Community

WunderPhotos

Upload Photos

1,779,358 photos uploaded!

WunderBlogs® & News

Nearby

Air Quality

  Air Quality AQ Index Pollutant
Not available.

Snow Depth

Station Depth Elevation

Earthquake Activity

City Distance Mag. Time & Date
Minimum magnitude displayed is 2.5.

Coastal Water Temperatures

Place Temperature

Nearby Weather Stations